KSACKMCE

Guest
Details From KSAC - Sacramento Executive
To KMCE - MERCED MUNI MACREADY FLD
Flight Number -
Tags generated
Created
Modified
Stats Distance 87 nm / 161 km
Max Altitude 6,100 ft / 1,859 m
Waypoints 3
Social Downloads 0
Likes 0
Share VATSIM

Download

Looking for another format? Having issues loading an existing format? Contact us
Advertisement - Login to hide

Notes

Basic altitude profile: - Ascent Rate: 2500ft/min - Ascent Speed: 250kts - Cruise Altitude: 35000ft - Cruise Speed: 420kts - Descent Rate: 1500ft/min - Descent Speed: 250kts

Route

KSAC GALTS KMCE

ID Type Via Altitude Latitude Longitude Leg Dist Tot Dist Heading (true) Name
O KSAC APT - 0 ft / 0 m 38.51264˚ -121.49319˚ - 0 nm - Sacramento Executive
GALTS FIX - 6,100 ft / 1,859 m 38.27056˚ -121.29354˚ 17 nm 17 nm 147° / 147° -
O KMCE APT - 0 ft / 0 m 37.28473˚ -120.51389˚ 69 nm 87 nm 148° / 148° MERCED MUNI MACREADY FLD

Altitude Profile

Advertisement - Login to hide

KSAC

Details ICAO KSAC (SAC)
Name Sacramento Executive
Region United States
Timezone America/Los_Angeles (UTC-7.0)
Stats Elevation 24 ft / 7 m (AMSL)
Location 38.512642° -121.493193°
Runways 3
Magnetic Variation 13.472° E

METAR

KSAC 270853Z AUTO 21003KT 10SM CLR 13/11 A2996 RMK AO2 SLP146 T01280111 56004

Decode

TAF

TAF KSAC 270525Z 2706/2806 VRB03KT P6SM SKC FM271700 33005KT P6SM SKC

Decode

Departure Runways

ID Width Length Bearing (true) Bearing (mag) Surface Threshold Offset Overrun Length
02 151 ft / 46 m 5,507 ft / 1,679 m 33.00° 19.53° Asphalt 0 ft / 0 m 0 ft / 0 m
12 98 ft / 30 m 3,834 ft / 1,169 m 133.23° 119.76° Asphalt 0 ft / 0 m 699 ft / 213 m
16 151 ft / 46 m 3,492 ft / 1,064 m 179.61° 166.14° Asphalt 0 ft / 0 m 0 ft / 0 m
20 151 ft / 46 m 5,507 ft / 1,679 m 213.01° 199.54° Asphalt 0 ft / 0 m 0 ft / 0 m
30 98 ft / 30 m 3,834 ft / 1,169 m 313.24° 299.77° Asphalt 0 ft / 0 m 0 ft / 0 m
34 151 ft / 46 m 3,492 ft / 1,064 m 359.61° 346.14° Asphalt 0 ft / 0 m 0 ft / 0 m

KMCE

Details ICAO KMCE (MCE)
Name MERCED MUNI MACREADY FLD
Region United States
Timezone America/Los_Angeles (UTC-7.0)
Stats Elevation 156 ft / 48 m (AMSL)
Location 37.284728° -120.513887°
Runways 1
Magnetic Variation 13.042° E

METAR

KMCE 270853Z AUTO 31003KT 10SM CLR 14/11 A2997 RMK AO2 SLP146 T01390106 56001

Decode

TAF

TAF KMCE 270520Z 2706/2806 32006KT P6SM SKC

Decode

Destination Runways

ID Width Length Bearing (true) Bearing (mag) Surface Threshold Offset Overrun Length
12 151 ft / 46 m 5,908 ft / 1,801 m 138.60° 125.56° Asphalt 0 ft / 0 m 0 ft / 0 m
30 151 ft / 46 m 5,908 ft / 1,801 m 318.60° 305.56° Asphalt 0 ft / 0 m 0 ft / 0 m

Approach Navaids

Runway Type Ident Frequency Range Bearing (true) Bearing (mag) Slope Elevation
30 Localiser IMCE 109.30 MHz 18 nm / 33 km 318.61° 305.57° - 153 ft / 47 m (AMSL)
30 Glidescope IMCE 109.30 MHz 10 nm / 19 km 318.60° 305.56° 3.00° 153 ft / 47 m (AMSL)
30 DME IMCE 109.30 MHz 18 nm / 33 km - - - 170 ft / 52 m (AMSL)